sensor_id;sensor_type;location;lat;lon;timestamp;P1;durP1;ratioP1;P2;durP2;ratioP2
22024;SDS011;11176;51.448;6.650;2023-07-29T00:00:06;1.80;;;1.23;;
22024;SDS011;11176;51.448;6.650;2023-07-29T00:02:37;3.35;;;1.40;;
22024;SDS011;11176;51.448;6.650;2023-07-29T00:05:04;3.70;;;1.65;;
22024;SDS011;11176;51.448;6.650;2023-07-29T00:07:31;3.67;;;1.23;;
22024;SDS011;11176;51.448;6.650;2023-07-29T00:09:57;2.00;;;1.30;;
22024;SDS011;11176;51.448;6.650;2023-07-29T00:12:24;2.67;;;1.20;;
22024;SDS011;11176;51.448;6.650;2023-07-29T00:14:51;3.45;;;1.50;;
22024;SDS011;11176;51.448;6.650;2023-07-29T00:17:17;3.35;;;1.20;;
22024;SDS011;11176;51.448;6.650;2023-07-29T00:19:46;3.05;;;1.30;;
22024;SDS011;11176;51.448;6.650;2023-07-29T00:22:13;3.75;;;1.30;;
22024;SDS011;11176;51.448;6.650;2023-07-29T00:24:39;2.00;;;1.10;;
22024;SDS011;11176;51.448;6.650;2023-07-29T00:27:06;2.90;;;1.35;;
22024;SDS011;11176;51.448;6.650;2023-07-29T00:29:33;3.05;;;1.33;;
22024;SDS011;11176;51.448;6.650;2023-07-29T00:31:59;2.95;;;1.23;;
22024;SDS011;11176;51.448;6.650;2023-07-29T00:34:26;2.80;;;1.40;;
22024;SDS011;11176;51.448;6.650;2023-07-29T00:36:53;2.63;;;1.23;;
22024;SDS011;11176;51.448;6.650;2023-07-29T00:39:19;3.13;;;1.20;;
22024;SDS011;11176;51.448;6.650;2023-07-29T00:41:46;2.22;;;1.10;;
22024;SDS011;11176;51.448;6.650;2023-07-29T00:44:13;2.50;;;1.25;;
22024;SDS011;11176;51.448;6.650;2023-07-29T00:46:39;4.07;;;1.25;;
22024;SDS011;11176;51.448;6.650;2023-07-29T00:49:08;3.88;;;1.08;;
22024;SDS011;11176;51.448;6.650;2023-07-29T00:51:34;3.22;;;1.20;;
22024;SDS011;11176;51.448;6.650;2023-07-29T00:54:01;2.38;;;1.00;;
22024;SDS011;11176;51.448;6.650;2023-07-29T00:56:28;2.10;;;1.23;;
22024;SDS011;11176;51.448;6.650;2023-07-29T00:58:55;3.10;;;1.30;;
22024;SDS011;11176;51.448;6.650;2023-07-29T01:01:26;3.42;;;1.30;;
22024;SDS011;11176;51.448;6.650;2023-07-29T01:03:52;2.80;;;1.05;;
22024;SDS011;11176;51.448;6.650;2023-07-29T01:09:34;1.75;;;1.08;;
22024;SDS011;11176;51.448;6.650;2023-07-29T01:12:20;5.53;;;1.20;;
22024;SDS011;11176;51.448;6.650;2023-07-29T01:14:59;2.35;;;1.25;;
22024;SDS011;11176;51.448;6.650;2023-07-29T01:17:48;3.15;;;1.48;;
22024;SDS011;11176;51.448;6.650;2023-07-29T01:20:19;3.20;;;1.45;;
22024;SDS011;11176;51.448;6.650;2023-07-29T01:22:46;3.25;;;1.23;;
22024;SDS011;11176;51.448;6.650;2023-07-29T01:25:13;3.70;;;1.30;;
22024;SDS011;11176;51.448;6.650;2023-07-29T01:27:41;3.00;;;1.33;;
22024;SDS011;11176;51.448;6.650;2023-07-29T01:30:09;2.13;;;1.10;;
22024;SDS011;11176;51.448;6.650;2023-07-29T01:35:18;4.38;;;1.50;;
22024;SDS011;11176;51.448;6.650;2023-07-29T01:37:51;3.53;;;1.48;;
22024;SDS011;11176;51.448;6.650;2023-07-29T01:40:25;1.98;;;1.25;;
22024;SDS011;11176;51.448;6.650;2023-07-29T01:42:53;3.33;;;1.20;;
22024;SDS011;11176;51.448;6.650;2023-07-29T01:45:24;2.70;;;1.48;;
22024;SDS011;11176;51.448;6.650;2023-07-29T01:47:52;3.33;;;1.40;;
22024;SDS011;11176;51.448;6.650;2023-07-29T01:50:20;4.10;;;1.50;;
22024;SDS011;11176;51.448;6.650;2023-07-29T01:52:47;2.38;;;1.40;;
22024;SDS011;11176;51.448;6.650;2023-07-29T01:55:13;2.70;;;1.40;;
22024;SDS011;11176;51.448;6.650;2023-07-29T01:57:40;2.53;;;1.42;;
22024;SDS011;11176;51.448;6.650;2023-07-29T02:00:07;5.20;;;1.60;;
22024;SDS011;11176;51.448;6.650;2023-07-29T02:02:40;4.40;;;1.55;;
22024;SDS011;11176;51.448;6.650;2023-07-29T02:05:07;5.57;;;1.20;;
22024;SDS011;11176;51.448;6.650;2023-07-29T02:07:33;3.13;;;1.33;;
22024;SDS011;11176;51.448;6.650;2023-07-29T02:10:00;2.35;;;1.30;;
22024;SDS011;11176;51.448;6.650;2023-07-29T02:12:27;2.20;;;1.40;;
22024;SDS011;11176;51.448;6.650;2023-07-29T02:14:53;5.10;;;1.50;;
22024;SDS011;11176;51.448;6.650;2023-07-29T02:17:20;3.33;;;1.48;;
22024;SDS011;11176;51.448;6.650;2023-07-29T02:19:47;4.45;;;1.48;;
22024;SDS011;11176;51.448;6.650;2023-07-29T02:22:14;4.30;;;1.52;;
22024;SDS011;11176;51.448;6.650;2023-07-29T02:24:44;2.65;;;1.55;;
22024;SDS011;11176;51.448;6.650;2023-07-29T02:27:11;4.75;;;1.70;;
22024;SDS011;11176;51.448;6.650;2023-07-29T02:29:38;3.10;;;1.55;;
22024;SDS011;11176;51.448;6.650;2023-07-29T02:32:04;5.03;;;1.98;;
22024;SDS011;11176;51.448;6.650;2023-07-29T02:34:31;4.45;;;1.70;;
22024;SDS011;11176;51.448;6.650;2023-07-29T02:36:58;3.50;;;1.70;;
22024;SDS011;11176;51.448;6.650;2023-07-29T02:39:25;2.97;;;1.60;;
22024;SDS011;11176;51.448;6.650;2023-07-29T02:41:52;4.45;;;1.60;;
22024;SDS011;11176;51.448;6.650;2023-07-29T02:44:19;2.97;;;1.42;;
22024;SDS011;11176;51.448;6.650;2023-07-29T02:46:46;2.83;;;1.73;;
22024;SDS011;11176;51.448;6.650;2023-07-29T02:49:13;4.47;;;1.50;;
22024;SDS011;11176;51.448;6.650;2023-07-29T02:51:40;5.47;;;1.50;;
22024;SDS011;11176;51.448;6.650;2023-07-29T02:54:07;3.05;;;1.50;;
22024;SDS011;11176;51.448;6.650;2023-07-29T02:56:33;3.08;;;1.88;;
22024;SDS011;11176;51.448;6.650;2023-07-29T02:59:01;1.95;;;1.42;;
22024;SDS011;11176;51.448;6.650;2023-07-29T03:01:29;4.63;;;1.65;;
22024;SDS011;11176;51.448;6.650;2023-07-29T03:03:56;2.83;;;1.90;;
22024;SDS011;11176;51.448;6.650;2023-07-29T03:06:23;2.25;;;1.50;;
22024;SDS011;11176;51.448;6.650;2023-07-29T03:08:50;3.20;;;1.63;;
22024;SDS011;11176;51.448;6.650;2023-07-29T03:11:16;3.05;;;1.73;;
22024;SDS011;11176;51.448;6.650;2023-07-29T03:13:43;3.30;;;1.60;;
22024;SDS011;11176;51.448;6.650;2023-07-29T03:16:11;3.03;;;1.70;;
22024;SDS011;11176;51.448;6.650;2023-07-29T03:18:45;3.25;;;1.48;;
22024;SDS011;11176;51.448;6.650;2023-07-29T03:21:12;2.80;;;1.70;;
22024;SDS011;11176;51.448;6.650;2023-07-29T03:23:38;3.63;;;2.13;;
22024;SDS011;11176;51.448;6.650;2023-07-29T03:26:05;3.83;;;1.80;;
22024;SDS011;11176;51.448;6.650;2023-07-29T03:28:39;4.28;;;1.70;;
22024;SDS011;11176;51.448;6.650;2023-07-29T03:31:09;2.90;;;1.52;;
22024;SDS011;11176;51.448;6.650;2023-07-29T03:33:36;4.90;;;2.15;;
22024;SDS011;11176;51.448;6.650;2023-07-29T03:36:03;3.38;;;2.17;;
22024;SDS011;11176;51.448;6.650;2023-07-29T03:38:30;2.70;;;1.65;;
22024;SDS011;11176;51.448;6.650;2023-07-29T03:40:57;2.70;;;1.70;;
22024;SDS011;11176;51.448;6.650;2023-07-29T03:43:24;3.03;;;1.75;;
22024;SDS011;11176;51.448;6.650;2023-07-29T03:45:52;3.35;;;1.90;;
22024;SDS011;11176;51.448;6.650;2023-07-29T03:48:19;4.15;;;1.65;;
22024;SDS011;11176;51.448;6.650;2023-07-29T03:50:46;2.33;;;1.70;;
22024;SDS011;11176;51.448;6.650;2023-07-29T03:53:12;2.58;;;1.60;;
22024;SDS011;11176;51.448;6.650;2023-07-29T03:55:39;3.33;;;1.90;;
22024;SDS011;11176;51.448;6.650;2023-07-29T03:58:05;5.65;;;1.73;;
22024;SDS011;11176;51.448;6.650;2023-07-29T04:00:32;3.42;;;2.03;;
22024;SDS011;11176;51.448;6.650;2023-07-29T04:02:59;4.50;;;2.03;;
22024;SDS011;11176;51.448;6.650;2023-07-29T04:05:25;5.13;;;1.98;;
22024;SDS011;11176;51.448;6.650;2023-07-29T04:07:53;2.67;;;1.70;;
22024;SDS011;11176;51.448;6.650;2023-07-29T04:10:20;2.55;;;1.75;;
22024;SDS011;11176;51.448;6.650;2023-07-29T04:12:47;3.85;;;2.17;;
22024;SDS011;11176;51.448;6.650;2023-07-29T04:15:14;3.08;;;2.10;;
22024;SDS011;11176;51.448;6.650;2023-07-29T04:17:41;3.85;;;2.30;;
22024;SDS011;11176;51.448;6.650;2023-07-29T04:20:07;2.38;;;1.85;;
22024;SDS011;11176;51.448;6.650;2023-07-29T04:22:34;4.63;;;2.28;;
22024;SDS011;11176;51.448;6.650;2023-07-29T04:25:01;6.32;;;2.70;;
22024;SDS011;11176;51.448;6.650;2023-07-29T04:27:27;5.10;;;2.60;;
22024;SDS011;11176;51.448;6.650;2023-07-29T04:29:54;5.63;;;3.40;;
22024;SDS011;11176;51.448;6.650;2023-07-29T04:32:20;6.88;;;3.05;;
22024;SDS011;11176;51.448;6.650;2023-07-29T04:34:47;5.40;;;3.05;;
22024;SDS011;11176;51.448;6.650;2023-07-29T04:37:13;6.03;;;3.20;;
22024;SDS011;11176;51.448;6.650;2023-07-29T04:39:40;6.55;;;3.28;;
22024;SDS011;11176;51.448;6.650;2023-07-29T04:42:06;6.72;;;3.47;;
22024;SDS011;11176;51.448;6.650;2023-07-29T04:44:34;7.65;;;4.00;;
22024;SDS011;11176;51.448;6.650;2023-07-29T04:47:01;6.35;;;4.40;;
22024;SDS011;11176;51.448;6.650;2023-07-29T04:49:28;6.85;;;4.70;;
22024;SDS011;11176;51.448;6.650;2023-07-29T04:51:54;8.52;;;4.90;;
22024;SDS011;11176;51.448;6.650;2023-07-29T04:54:21;6.18;;;5.05;;
22024;SDS011;11176;51.448;6.650;2023-07-29T04:56:48;5.93;;;4.43;;
22024;SDS011;11176;51.448;6.650;2023-07-29T04:59:16;6.97;;;4.75;;
22024;SDS011;11176;51.448;6.650;2023-07-29T05:01:43;6.68;;;4.70;;
22024;SDS011;11176;51.448;6.650;2023-07-29T05:04:10;6.65;;;4.20;;
22024;SDS011;11176;51.448;6.650;2023-07-29T05:06:36;6.80;;;4.18;;
22024;SDS011;11176;51.448;6.650;2023-07-29T05:09:13;6.60;;;4.30;;
22024;SDS011;11176;51.448;6.650;2023-07-29T05:11:44;5.88;;;4.05;;
22024;SDS011;11176;51.448;6.650;2023-07-29T05:14:15;6.28;;;4.10;;
22024;SDS011;11176;51.448;6.650;2023-07-29T05:16:43;4.60;;;3.65;;
22024;SDS011;11176;51.448;6.650;2023-07-29T05:19:10;4.90;;;3.50;;
22024;SDS011;11176;51.448;6.650;2023-07-29T05:21:38;5.95;;;3.30;;
22024;SDS011;11176;51.448;6.650;2023-07-29T05:24:05;7.43;;;3.40;;
22024;SDS011;11176;51.448;6.650;2023-07-29T05:26:31;6.45;;;3.40;;
22024;SDS011;11176;51.448;6.650;2023-07-29T05:28:58;5.60;;;3.17;;
22024;SDS011;11176;51.448;6.650;2023-07-29T05:31:24;5.38;;;3.28;;
22024;SDS011;11176;51.448;6.650;2023-07-29T05:33:52;5.07;;;2.90;;
22024;SDS011;11176;51.448;6.650;2023-07-29T05:36:18;6.10;;;3.45;;
22024;SDS011;11176;51.448;6.650;2023-07-29T05:38:45;4.72;;;3.13;;
22024;SDS011;11176;51.448;6.650;2023-07-29T05:41:11;5.78;;;2.78;;
22024;SDS011;11176;51.448;6.650;2023-07-29T05:43:38;4.82;;;2.70;;
22024;SDS011;11176;51.448;6.650;2023-07-29T05:46:05;4.82;;;2.92;;
22024;SDS011;11176;51.448;6.650;2023-07-29T05:48:31;5.72;;;2.55;;
22024;SDS011;11176;51.448;6.650;2023-07-29T05:50:58;4.57;;;2.30;;
22024;SDS011;11176;51.448;6.650;2023-07-29T05:53:25;5.50;;;1.98;;
22024;SDS011;11176;51.448;6.650;2023-07-29T05:55:51;3.53;;;2.33;;
22024;SDS011;11176;51.448;6.650;2023-07-29T05:58:18;3.53;;;2.30;;
22024;SDS011;11176;51.448;6.650;2023-07-29T06:00:44;3.90;;;2.60;;
22024;SDS011;11176;51.448;6.650;2023-07-29T06:03:11;4.28;;;2.47;;
22024;SDS011;11176;51.448;6.650;2023-07-29T06:05:38;3.70;;;2.28;;
22024;SDS011;11176;51.448;6.650;2023-07-29T06:08:05;3.65;;;2.10;;
22024;SDS011;11176;51.448;6.650;2023-07-29T06:10:34;5.45;;;2.30;;
22024;SDS011;11176;51.448;6.650;2023-07-29T06:13:01;3.88;;;2.22;;
22024;SDS011;11176;51.448;6.650;2023-07-29T06:15:27;3.17;;;2.30;;
22024;SDS011;11176;51.448;6.650;2023-07-29T06:17:54;4.72;;;2.22;;
22024;SDS011;11176;51.448;6.650;2023-07-29T06:20:22;5.50;;;2.50;;
22024;SDS011;11176;51.448;6.650;2023-07-29T06:22:49;3.60;;;2.00;;
22024;SDS011;11176;51.448;6.650;2023-07-29T06:25:16;4.53;;;2.10;;
22024;SDS011;11176;51.448;6.650;2023-07-29T06:27:42;3.25;;;2.13;;
22024;SDS011;11176;51.448;6.650;2023-07-29T06:30:09;4.60;;;2.15;;
22024;SDS011;11176;51.448;6.650;2023-07-29T06:32:36;3.03;;;1.90;;
22024;SDS011;11176;51.448;6.650;2023-07-29T06:35:03;3.72;;;2.20;;
22024;SDS011;11176;51.448;6.650;2023-07-29T06:37:30;3.95;;;1.58;;
22024;SDS011;11176;51.448;6.650;2023-07-29T06:39:56;2.78;;;1.67;;
22024;SDS011;11176;51.448;6.650;2023-07-29T06:42:22;4.38;;;1.73;;
22024;SDS011;11176;51.448;6.650;2023-07-29T06:44:49;2.60;;;1.70;;
22024;SDS011;11176;51.448;6.650;2023-07-29T06:47:16;3.33;;;1.50;;
22024;SDS011;11176;51.448;6.650;2023-07-29T06:49:42;3.50;;;1.77;;
22024;SDS011;11176;51.448;6.650;2023-07-29T06:52:09;2.88;;;1.50;;
22024;SDS011;11176;51.448;6.650;2023-07-29T06:54:35;2.72;;;1.90;;
22024;SDS011;11176;51.448;6.650;2023-07-29T06:57:02;6.53;;;1.48;;
22024;SDS011;11176;51.448;6.650;2023-07-29T06:59:29;2.88;;;1.75;;
22024;SDS011;11176;51.448;6.650;2023-07-29T07:01:55;2.92;;;1.65;;
22024;SDS011;11176;51.448;6.650;2023-07-29T07:04:22;3.45;;;1.58;;
22024;SDS011;11176;51.448;6.650;2023-07-29T07:06:48;2.92;;;1.42;;
22024;SDS011;11176;51.448;6.650;2023-07-29T07:09:15;3.10;;;1.38;;
22024;SDS011;11176;51.448;6.650;2023-07-29T07:11:41;2.63;;;1.50;;
22024;SDS011;11176;51.448;6.650;2023-07-29T07:14:08;2.55;;;1.42;;
22024;SDS011;11176;51.448;6.650;2023-07-29T07:16:34;2.75;;;1.55;;
22024;SDS011;11176;51.448;6.650;2023-07-29T07:19:03;3.85;;;1.50;;
22024;SDS011;11176;51.448;6.650;2023-07-29T07:21:30;2.15;;;1.23;;
22024;SDS011;11176;51.448;6.650;2023-07-29T07:23:56;1.83;;;1.00;;
22024;SDS011;11176;51.448;6.650;2023-07-29T07:26:23;3.72;;;1.30;;
22024;SDS011;11176;51.448;6.650;2023-07-29T07:28:49;3.17;;;1.42;;
22024;SDS011;11176;51.448;6.650;2023-07-29T07:31:17;4.70;;;1.20;;
22024;SDS011;11176;51.448;6.650;2023-07-29T07:33:46;5.75;;;1.20;;
22024;SDS011;11176;51.448;6.650;2023-07-29T07:36:12;2.50;;;1.30;;
22024;SDS011;11176;51.448;6.650;2023-07-29T07:38:39;3.03;;;1.00;;
22024;SDS011;11176;51.448;6.650;2023-07-29T07:41:05;2.00;;;1.27;;
22024;SDS011;11176;51.448;6.650;2023-07-29T07:43:32;2.75;;;1.20;;
22024;SDS011;11176;51.448;6.650;2023-07-29T07:45:59;3.47;;;1.25;;
22024;SDS011;11176;51.448;6.650;2023-07-29T07:48:27;3.22;;;1.05;;
22024;SDS011;11176;51.448;6.650;2023-07-29T07:50:54;2.17;;;1.20;;
22024;SDS011;11176;51.448;6.650;2023-07-29T07:53:21;1.85;;;1.17;;
22024;SDS011;11176;51.448;6.650;2023-07-29T07:55:47;3.17;;;1.00;;
22024;SDS011;11176;51.448;6.650;2023-07-29T07:58:14;3.13;;;1.15;;
22024;SDS011;11176;51.448;6.650;2023-07-29T08:00:40;2.72;;;1.33;;
22024;SDS011;11176;51.448;6.650;2023-07-29T08:03:07;2.17;;;1.38;;
22024;SDS011;11176;51.448;6.650;2023-07-29T08:05:33;2.67;;;1.20;;
22024;SDS011;11176;51.448;6.650;2023-07-29T08:08:00;1.85;;;1.00;;
22024;SDS011;11176;51.448;6.650;2023-07-29T08:10:26;1.42;;;0.90;;
22024;SDS011;11176;51.448;6.650;2023-07-29T08:12:53;2.40;;;0.98;;
22024;SDS011;11176;51.448;6.650;2023-07-29T08:15:19;1.95;;;1.00;;
22024;SDS011;11176;51.448;6.650;2023-07-29T08:17:46;1.20;;;0.90;;
22024;SDS011;11176;51.448;6.650;2023-07-29T08:20:13;3.17;;;1.02;;
22024;SDS011;11176;51.448;6.650;2023-07-29T08:22:39;1.88;;;1.00;;
22024;SDS011;11176;51.448;6.650;2023-07-29T08:25:06;1.95;;;0.90;;
22024;SDS011;11176;51.448;6.650;2023-07-29T08:27:33;2.03;;;0.93;;
22024;SDS011;11176;51.448;6.650;2023-07-29T08:30:00;1.50;;;0.75;;
22024;SDS011;11176;51.448;6.650;2023-07-29T08:32:27;0.90;;;0.60;;
22024;SDS011;11176;51.448;6.650;2023-07-29T08:34:53;1.55;;;0.75;;
22024;SDS011;11176;51.448;6.650;2023-07-29T08:37:20;4.22;;;0.80;;
22024;SDS011;11176;51.448;6.650;2023-07-29T08:39:46;2.03;;;0.90;;
22024;SDS011;11176;51.448;6.650;2023-07-29T08:42:13;2.20;;;0.80;;
22024;SDS011;11176;51.448;6.650;2023-07-29T08:44:45;1.30;;;0.80;;
22024;SDS011;11176;51.448;6.650;2023-07-29T08:47:15;1.73;;;0.90;;
22024;SDS011;11176;51.448;6.650;2023-07-29T08:49:43;1.45;;;0.77;;
22024;SDS011;11176;51.448;6.650;2023-07-29T08:52:11;1.33;;;0.75;;
22024;SDS011;11176;51.448;6.650;2023-07-29T08:54:38;1.38;;;0.80;;
22024;SDS011;11176;51.448;6.650;2023-07-29T08:57:05;1.30;;;0.70;;
22024;SDS011;11176;51.448;6.650;2023-07-29T08:59:32;1.42;;;0.85;;
22024;SDS011;11176;51.448;6.650;2023-07-29T09:01:59;1.92;;;0.90;;
22024;SDS011;11176;51.448;6.650;2023-07-29T09:04:25;1.20;;;0.60;;
22024;SDS011;11176;51.448;6.650;2023-07-29T09:06:52;1.85;;;0.80;;
22024;SDS011;11176;51.448;6.650;2023-07-29T09:09:20;1.30;;;0.82;;
22024;SDS011;11176;51.448;6.650;2023-07-29T09:11:47;1.42;;;0.80;;
22024;SDS011;11176;51.448;6.650;2023-07-29T09:14:14;1.52;;;0.70;;
22024;SDS011;11176;51.448;6.650;2023-07-29T09:16:41;1.77;;;0.90;;
22024;SDS011;11176;51.448;6.650;2023-07-29T09:19:08;1.80;;;0.80;;
22024;SDS011;11176;51.448;6.650;2023-07-29T09:21:38;1.20;;;0.70;;
22024;SDS011;11176;51.448;6.650;2023-07-29T09:24:05;1.92;;;1.00;;
22024;SDS011;11176;51.448;6.650;2023-07-29T09:26:33;1.90;;;0.90;;
22024;SDS011;11176;51.448;6.650;2023-07-29T09:29:01;1.60;;;0.90;;
22024;SDS011;11176;51.448;6.650;2023-07-29T09:31:28;1.45;;;0.80;;
22024;SDS011;11176;51.448;6.650;2023-07-29T09:33:56;2.20;;;1.10;;
22024;SDS011;11176;51.448;6.650;2023-07-29T09:36:27;2.38;;;1.00;;
22024;SDS011;11176;51.448;6.650;2023-07-29T09:38:57;2.33;;;0.98;;
22024;SDS011;11176;51.448;6.650;2023-07-29T09:41:24;1.58;;;0.93;;
22024;SDS011;11176;51.448;6.650;2023-07-29T09:43:57;2.53;;;1.05;;
22024;SDS011;11176;51.448;6.650;2023-07-29T09:46:25;5.13;;;1.05;;
22024;SDS011;11176;51.448;6.650;2023-07-29T09:48:59;1.90;;;0.95;;
22024;SDS011;11176;51.448;6.650;2023-07-29T09:51:25;2.03;;;1.13;;
22024;SDS011;11176;51.448;6.650;2023-07-29T09:53:52;2.08;;;1.00;;
22024;SDS011;11176;51.448;6.650;2023-07-29T09:56:23;3.28;;;1.10;;
22024;SDS011;11176;51.448;6.650;2023-07-29T09:58:52;3.10;;;0.82;;
22024;SDS011;11176;51.448;6.650;2023-07-29T10:01:19;1.73;;;1.13;;
22024;SDS011;11176;51.448;6.650;2023-07-29T10:03:46;2.15;;;0.70;;
22024;SDS011;11176;51.448;6.650;2023-07-29T10:06:15;1.50;;;0.77;;
22024;SDS011;11176;51.448;6.650;2023-07-29T10:08:42;1.30;;;0.73;;
22024;SDS011;11176;51.448;6.650;2023-07-29T10:11:09;1.98;;;0.93;;
22024;SDS011;11176;51.448;6.650;2023-07-29T10:13:38;2.42;;;0.80;;
22024;SDS011;11176;51.448;6.650;2023-07-29T10:16:04;2.25;;;0.77;;
22024;SDS011;11176;51.448;6.650;2023-07-29T10:18:32;1.75;;;0.80;;
22024;SDS011;11176;51.448;6.650;2023-07-29T10:21:00;2.50;;;0.95;;
22024;SDS011;11176;51.448;6.650;2023-07-29T10:23:30;1.75;;;0.90;;
22024;SDS011;11176;51.448;6.650;2023-07-29T10:26:04;1.87;;;0.87;;
22024;SDS011;11176;51.448;6.650;2023-07-29T10:28:32;1.65;;;0.82;;
22024;SDS011;11176;51.448;6.650;2023-07-29T10:31:00;1.80;;;0.88;;
22024;SDS011;11176;51.448;6.650;2023-07-29T10:33:29;3.13;;;0.95;;
22024;SDS011;11176;51.448;6.650;2023-07-29T10:35:58;1.92;;;0.90;;
22024;SDS011;11176;51.448;6.650;2023-07-29T10:38:26;2.85;;;0.80;;
22024;SDS011;11176;51.448;6.650;2023-07-29T10:40:54;2.45;;;0.90;;
22024;SDS011;11176;51.448;6.650;2023-07-29T10:43:35;1.67;;;0.85;;
22024;SDS011;11176;51.448;6.650;2023-07-29T10:46:20;1.48;;;0.70;;
22024;SDS011;11176;51.448;6.650;2023-07-29T10:51:35;1.90;;;0.90;;
22024;SDS011;11176;51.448;6.650;2023-07-29T10:54:21;2.60;;;0.90;;
22024;SDS011;11176;51.448;6.650;2023-07-29T10:56:48;3.00;;;0.80;;
22024;SDS011;11176;51.448;6.650;2023-07-29T11:01:51;1.42;;;0.80;;
22024;SDS011;11176;51.448;6.650;2023-07-29T11:09:39;2.60;;;0.90;;
22024;SDS011;11176;51.448;6.650;2023-07-29T11:15:19;3.15;;;1.05;;
22024;SDS011;11176;51.448;6.650;2023-07-29T11:17:59;1.67;;;0.90;;
22024;SDS011;11176;51.448;6.650;2023-07-29T11:20:31;1.67;;;1.00;;
22024;SDS011;11176;51.448;6.650;2023-07-29T11:22:59;1.80;;;0.88;;
22024;SDS011;11176;51.448;6.650;2023-07-29T11:25:28;5.15;;;1.05;;
22024;SDS011;11176;51.448;6.650;2023-07-29T11:27:57;2.47;;;1.13;;
22024;SDS011;11176;51.448;6.650;2023-07-29T11:30:25;1.83;;;1.02;;
22024;SDS011;11176;51.448;6.650;2023-07-29T11:32:56;1.80;;;1.05;;
22024;SDS011;11176;51.448;6.650;2023-07-29T11:35:24;1.92;;;1.10;;
22024;SDS011;11176;51.448;6.650;2023-07-29T11:37:51;2.25;;;1.15;;
22024;SDS011;11176;51.448;6.650;2023-07-29T11:40:19;2.90;;;1.05;;
22024;SDS011;11176;51.448;6.650;2023-07-29T11:42:47;3.13;;;0.82;;
22024;SDS011;11176;51.448;6.650;2023-07-29T11:45:18;3.72;;;1.15;;
22024;SDS011;11176;51.448;6.650;2023-07-29T11:47:46;2.30;;;0.82;;
22024;SDS011;11176;51.448;6.650;2023-07-29T11:50:13;1.90;;;0.98;;
22024;SDS011;11176;51.448;6.650;2023-07-29T11:52:41;1.50;;;0.77;;
22024;SDS011;11176;51.448;6.650;2023-07-29T11:55:10;3.65;;;0.90;;
22024;SDS011;11176;51.448;6.650;2023-07-29T11:57:38;1.30;;;0.70;;
22024;SDS011;11176;51.448;6.650;2023-07-29T12:00:06;1.23;;;0.63;;
22024;SDS011;11176;51.448;6.650;2023-07-29T12:02:36;1.60;;;0.95;;
22024;SDS011;11176;51.448;6.650;2023-07-29T12:05:04;1.77;;;0.90;;
22024;SDS011;11176;51.448;6.650;2023-07-29T12:07:31;2.20;;;1.05;;
22024;SDS011;11176;51.448;6.650;2023-07-29T12:09:59;1.15;;;0.60;;
22024;SDS011;11176;51.448;6.650;2023-07-29T12:12:26;3.25;;;0.80;;
22024;SDS011;11176;51.448;6.650;2023-07-29T12:14:54;2.50;;;0.80;;
22024;SDS011;11176;51.448;6.650;2023-07-29T12:17:20;2.03;;;0.90;;
22024;SDS011;11176;51.448;6.650;2023-07-29T12:19:47;1.88;;;0.90;;
22024;SDS011;11176;51.448;6.650;2023-07-29T12:22:17;2.65;;;1.17;;
22024;SDS011;11176;51.448;6.650;2023-07-29T12:24:45;2.15;;;1.27;;
22024;SDS011;11176;51.448;6.650;2023-07-29T12:27:12;2.33;;;1.08;;
22024;SDS011;11176;51.448;6.650;2023-07-29T12:29:41;2.20;;;0.88;;
22024;SDS011;11176;51.448;6.650;2023-07-29T12:32:08;1.30;;;0.80;;
22024;SDS011;11176;51.448;6.650;2023-07-29T12:34:37;2.25;;;1.10;;
22024;SDS011;11176;51.448;6.650;2023-07-29T12:37:07;5.05;;;1.00;;
22024;SDS011;11176;51.448;6.650;2023-07-29T12:39:35;3.38;;;0.90;;
22024;SDS011;11176;51.448;6.650;2023-07-29T12:42:08;1.35;;;0.70;;
22024;SDS011;11176;51.448;6.650;2023-07-29T12:44:35;1.88;;;0.88;;
22024;SDS011;11176;51.448;6.650;2023-07-29T12:47:04;1.58;;;0.90;;
22024;SDS011;11176;51.448;6.650;2023-07-29T12:49:32;2.22;;;1.02;;
22024;SDS011;11176;51.448;6.650;2023-07-29T12:51:59;1.92;;;1.00;;
22024;SDS011;11176;51.448;6.650;2023-07-29T12:54:26;2.20;;;0.90;;
22024;SDS011;11176;51.448;6.650;2023-07-29T12:56:52;1.77;;;1.00;;
22024;SDS011;11176;51.448;6.650;2023-07-29T12:59:19;1.60;;;1.00;;
22024;SDS011;11176;51.448;6.650;2023-07-29T13:01:45;2.58;;;0.85;;
22024;SDS011;11176;51.448;6.650;2023-07-29T13:04:12;4.07;;;1.23;;
22024;SDS011;11176;51.448;6.650;2023-07-29T13:06:39;2.63;;;1.00;;
22024;SDS011;11176;51.448;6.650;2023-07-29T13:09:06;3.90;;;1.20;;
22024;SDS011;11176;51.448;6.650;2023-07-29T13:11:32;1.60;;;1.00;;
22024;SDS011;11176;51.448;6.650;2023-07-29T13:13:59;1.73;;;1.00;;
22024;SDS011;11176;51.448;6.650;2023-07-29T13:16:29;2.38;;;1.13;;
22024;SDS011;11176;51.448;6.650;2023-07-29T13:18:56;3.72;;;1.00;;
22024;SDS011;11176;51.448;6.650;2023-07-29T13:21:23;2.28;;;0.88;;
22024;SDS011;11176;51.448;6.650;2023-07-29T13:23:50;4.22;;;1.10;;
22024;SDS011;11176;51.448;6.650;2023-07-29T13:26:17;3.58;;;1.10;;
22024;SDS011;11176;51.448;6.650;2023-07-29T13:28:44;2.22;;;1.17;;
22024;SDS011;11176;51.448;6.650;2023-07-29T13:31:10;1.67;;;0.93;;
22024;SDS011;11176;51.448;6.650;2023-07-29T13:33:37;3.65;;;1.10;;
22024;SDS011;11176;51.448;6.650;2023-07-29T13:36:05;2.17;;;0.90;;
22024;SDS011;11176;51.448;6.650;2023-07-29T13:38:31;2.30;;;1.10;;
22024;SDS011;11176;51.448;6.650;2023-07-29T13:40:58;3.58;;;1.23;;
22024;SDS011;11176;51.448;6.650;2023-07-29T13:43:25;1.98;;;0.90;;
22024;SDS011;11176;51.448;6.650;2023-07-29T13:45:51;3.22;;;1.10;;
22024;SDS011;11176;51.448;6.650;2023-07-29T13:48:18;2.97;;;1.30;;
22024;SDS011;11176;51.448;6.650;2023-07-29T13:50:46;4.72;;;1.50;;
22024;SDS011;11176;51.448;6.650;2023-07-29T13:53:12;3.25;;;1.40;;
22024;SDS011;11176;51.448;6.650;2023-07-29T13:55:39;5.38;;;1.55;;
22024;SDS011;11176;51.448;6.650;2023-07-29T13:58:05;4.50;;;1.98;;
22024;SDS011;11176;51.448;6.650;2023-07-29T14:00:32;4.57;;;1.92;;
22024;SDS011;11176;51.448;6.650;2023-07-29T14:02:59;3.05;;;1.65;;
22024;SDS011;11176;51.448;6.650;2023-07-29T14:05:27;3.25;;;1.52;;
22024;SDS011;11176;51.448;6.650;2023-07-29T14:07:53;3.35;;;1.65;;
22024;SDS011;11176;51.448;6.650;2023-07-29T14:10:20;3.25;;;1.70;;
22024;SDS011;11176;51.448;6.650;2023-07-29T14:12:46;3.30;;;1.50;;
22024;SDS011;11176;51.448;6.650;2023-07-29T14:15:13;2.53;;;1.52;;
22024;SDS011;11176;51.448;6.650;2023-07-29T14:17:39;2.95;;;1.52;;
22024;SDS011;11176;51.448;6.650;2023-07-29T14:20:06;2.60;;;1.30;;
22024;SDS011;11176;51.448;6.650;2023-07-29T14:22:33;2.55;;;1.48;;
22024;SDS011;11176;51.448;6.650;2023-07-29T14:24:59;3.35;;;1.83;;
22024;SDS011;11176;51.448;6.650;2023-07-29T14:27:27;3.90;;;1.60;;
22024;SDS011;11176;51.448;6.650;2023-07-29T14:29:53;3.20;;;1.60;;
22024;SDS011;11176;51.448;6.650;2023-07-29T14:32:20;3.60;;;1.80;;
22024;SDS011;11176;51.448;6.650;2023-07-29T14:34:49;2.95;;;1.70;;
22024;SDS011;11176;51.448;6.650;2023-07-29T14:37:15;4.40;;;1.95;;
22024;SDS011;11176;51.448;6.650;2023-07-29T14:39:42;3.78;;;1.50;;
22024;SDS011;11176;51.448;6.650;2023-07-29T14:42:09;3.28;;;1.60;;
22024;SDS011;11176;51.448;6.650;2023-07-29T14:44:35;2.90;;;1.50;;
22024;SDS011;11176;51.448;6.650;2023-07-29T14:47:02;3.55;;;1.55;;
22024;SDS011;11176;51.448;6.650;2023-07-29T14:49:28;4.78;;;1.63;;
22024;SDS011;11176;51.448;6.650;2023-07-29T14:51:55;5.32;;;1.83;;
22024;SDS011;11176;51.448;6.650;2023-07-29T14:54:21;5.38;;;1.90;;
22024;SDS011;11176;51.448;6.650;2023-07-29T14:56:48;2.40;;;1.50;;
22024;SDS011;11176;51.448;6.650;2023-07-29T14:59:15;2.55;;;1.58;;
22024;SDS011;11176;51.448;6.650;2023-07-29T15:01:41;3.70;;;2.10;;
22024;SDS011;11176;51.448;6.650;2023-07-29T15:04:08;5.00;;;1.70;;
22024;SDS011;11176;51.448;6.650;2023-07-29T15:06:34;4.38;;;1.50;;
22024;SDS011;11176;51.448;6.650;2023-07-29T15:09:01;3.80;;;1.85;;